createdAt,value
2023-04-14T00:01:01.531Z,44.66
2023-04-14T00:03:31.702Z,44.53
2023-04-14T00:06:02.325Z,44.81
2023-04-14T00:08:32.067Z,44.78
2023-04-14T00:11:02.190Z,44.68
2023-04-14T00:13:33.894Z,45.03
2023-04-14T00:16:04.062Z,44.68
2023-04-14T00:18:34.203Z,44.49
2023-04-14T00:21:04.671Z,44.77
2023-04-14T00:23:34.777Z,45.15
2023-04-14T00:26:04.950Z,44.74
2023-04-14T00:28:36.382Z,45.17
2023-04-14T00:31:07.022Z,44.99
2023-04-14T00:33:37.219Z,44.96
2023-04-14T00:36:07.592Z,44.96
2023-04-14T00:38:37.673Z,44.53
2023-04-14T00:41:08.097Z,44.75
2023-04-14T00:43:40.217Z,45.07
2023-04-14T00:46:10.712Z,45.19
2023-04-14T00:48:40.723Z,44.79
2023-04-14T00:51:12.407Z,44.88
2023-04-14T00:53:43.389Z,45.02
2023-04-14T00:56:13.308Z,44.80
2023-04-14T00:58:45.484Z,44.87
2023-04-14T01:01:18.950Z,45.19
2023-04-14T01:03:49.383Z,44.96
2023-04-14T01:06:19.641Z,45.07
2023-04-14T01:08:50.894Z,44.52
2023-04-14T01:11:40.875Z,44.52
2023-04-14T01:14:24.830Z,45.25
2023-04-14T01:17:01.800Z,44.87
2023-04-14T01:19:59.807Z,45.04
2023-04-14T01:22:35.548Z,44.67
2023-04-14T01:26:23.074Z,45.00
2023-04-14T01:29:38.394Z,45.15
2023-04-14T01:32:16.702Z,44.90
2023-04-14T01:34:54.177Z,44.80
2023-04-14T01:37:34.409Z,44.83
2023-04-14T01:40:11.945Z,45.05
2023-04-14T01:42:49.292Z,45.09
2023-04-14T01:45:27.056Z,44.64
2023-04-14T01:48:00.936Z,45.08
2023-04-14T01:50:34.506Z,44.97
2023-04-14T01:53:06.914Z,44.79
2023-04-14T01:55:39.294Z,44.87
2023-04-14T01:58:11.950Z,45.06
2023-04-14T02:00:45.167Z,44.62
2023-04-14T02:03:21.080Z,45.12
2023-04-14T02:05:54.897Z,45.09
2023-04-14T02:08:27.413Z,45.10
2023-04-14T02:11:00.230Z,44.58
2023-04-14T02:13:33.153Z,44.78
2023-04-14T02:16:05.680Z,44.78
2023-04-14T02:18:41.287Z,44.56
2023-04-14T02:21:14.332Z,44.98
2023-04-14T02:23:44.736Z,44.95
2023-04-14T02:26:18.025Z,44.68
2023-04-14T02:28:56.397Z,44.90
2023-04-14T02:31:32.453Z,44.75
2023-04-14T02:34:08.154Z,44.91
2023-04-14T02:36:45.459Z,44.39
2023-04-14T02:39:21.371Z,44.81
2023-04-14T02:42:01.839Z,44.61
2023-04-14T02:44:37.604Z,44.66
2023-04-14T02:47:11.832Z,44.69
2023-04-14T02:49:47.057Z,44.61
2023-04-14T02:52:21.782Z,44.88
2023-04-14T02:54:55.192Z,44.43
2023-04-14T02:57:27.653Z,44.32
2023-04-14T02:59:59.175Z,44.30
2023-04-14T03:02:30.769Z,44.73
2023-04-14T03:05:04.122Z,44.73
2023-04-14T03:07:35.408Z,44.84
2023-04-14T03:10:06.625Z,44.57
2023-04-14T03:12:40.027Z,44.79
2023-04-14T03:15:12.339Z,44.28
2023-04-14T03:17:45.507Z,44.62
2023-04-14T03:20:22.137Z,44.36
2023-04-14T03:22:58.715Z,44.56
2023-04-14T03:25:32.036Z,44.62
2023-04-14T03:28:06.804Z,44.96
2023-04-14T03:30:41.752Z,44.97
2023-04-14T03:33:14.825Z,44.73
2023-04-14T03:35:50.412Z,44.63
2023-04-14T03:38:24.139Z,45.00
2023-04-14T03:40:55.711Z,44.64
2023-04-14T03:43:27.622Z,45.02
2023-04-14T03:45:58.555Z,45.09
2023-04-14T03:48:34.747Z,44.46
2023-04-14T03:51:09.944Z,44.88
2023-04-14T03:53:45.069Z,44.81
2023-04-14T03:56:16.357Z,44.93
2023-04-14T03:58:51.048Z,44.35
2023-04-14T04:01:26.046Z,44.76
2023-04-14T04:03:58.233Z,44.91
2023-04-14T04:06:31.926Z,44.36
2023-04-14T04:09:04.220Z,44.36
2023-04-14T04:11:37.569Z,44.45
2023-04-14T04:14:09.494Z,44.36
2023-04-14T04:16:46.004Z,44.44
2023-04-14T04:19:17.521Z,44.28
2023-04-14T04:21:54.587Z,44.44
2023-04-14T04:24:29.855Z,44.88
2023-04-14T04:27:01.718Z,44.56
2023-04-14T04:29:32.630Z,44.39
2023-04-14T04:32:03.448Z,44.72
2023-04-14T04:34:35.400Z,44.65
2023-04-14T04:37:09.144Z,44.87
2023-04-14T04:39:39.434Z,44.96
2023-04-14T04:42:10.348Z,45.14
2023-04-14T04:44:40.756Z,44.88
2023-04-14T04:47:12.572Z,44.67
2023-04-14T04:49:42.760Z,44.62
2023-04-14T04:52:14.832Z,44.59
2023-04-14T04:54:45.717Z,44.70
2023-04-14T04:57:16.419Z,44.66
2023-04-14T04:59:46.802Z,44.65
2023-04-14T05:02:19.575Z,45.00
2023-04-14T05:04:49.946Z,44.77
2023-04-14T05:07:22.541Z,44.43
2023-04-14T05:09:51.997Z,44.56
2023-04-14T05:12:22.873Z,44.94
2023-04-14T05:14:53.043Z,44.63
2023-04-14T05:17:23.615Z,44.52
2023-04-14T05:19:53.629Z,45.08
2023-04-14T05:22:25.220Z,44.66
2023-04-14T05:24:54.845Z,44.55
2023-04-14T05:27:24.530Z,44.73
2023-04-14T05:29:55.880Z,44.77
2023-04-14T05:32:29.195Z,44.38
2023-04-14T05:35:00.057Z,44.17
2023-04-14T05:37:31.739Z,44.43
2023-04-14T05:40:01.332Z,44.29
2023-04-14T05:42:31.426Z,44.41
2023-04-14T05:45:01.512Z,44.70
2023-04-14T05:47:31.822Z,44.57
2023-04-14T05:50:01.610Z,44.29
2023-04-14T05:52:33.776Z,44.16
2023-04-14T05:55:03.292Z,44.21
2023-04-14T05:57:33.224Z,44.30
2023-04-14T06:00:03.863Z,44.23
2023-04-14T06:02:34.137Z,44.48
2023-04-14T06:05:06.965Z,44.30
2023-04-14T06:07:39.499Z,44.16
2023-04-14T06:10:11.475Z,43.83
2023-04-14T06:12:41.656Z,43.77
2023-04-14T06:15:12.386Z,44.33
2023-04-14T06:17:42.591Z,44.15
2023-04-14T06:20:14.098Z,44.24
2023-04-14T06:22:45.721Z,44.28
2023-04-14T06:25:16.099Z,44.28
2023-04-14T06:27:46.100Z,43.97
2023-04-14T06:30:17.329Z,44.00
2023-04-14T06:32:48.917Z,43.94
2023-04-14T06:35:31.964Z,44.03
2023-04-14T06:38:05.410Z,43.54
2023-04-14T06:40:34.945Z,43.90
2023-04-14T06:43:05.112Z,43.42
2023-04-14T06:45:35.189Z,43.64
2023-04-14T06:48:05.216Z,43.64
2023-04-14T06:50:35.349Z,43.32
2023-04-14T06:53:07.592Z,43.43
2023-04-14T06:55:38.457Z,43.35
2023-04-14T06:58:08.110Z,43.35
2023-04-14T07:00:38.384Z,43.12
2023-04-14T07:03:08.011Z,43.12
2023-04-14T07:05:38.762Z,42.85
2023-04-14T07:08:10.881Z,42.86
2023-04-14T07:10:40.917Z,42.73
2023-04-14T07:13:11.179Z,42.54
2023-04-14T07:15:41.356Z,42.68
2023-04-14T07:18:11.657Z,42.33
2023-04-14T07:20:41.316Z,42.44
2023-04-14T07:23:12.977Z,42.04
2023-04-14T07:25:42.642Z,42.02
2023-04-14T07:28:12.387Z,42.09
2023-04-14T07:30:42.496Z,41.85
2023-04-14T07:33:13.185Z,42.02
2023-04-14T07:35:54.487Z,42.06
2023-04-14T07:38:33.288Z,42.08
2023-04-14T07:41:06.705Z,41.98
2023-04-14T07:43:37.295Z,41.96
2023-04-14T07:46:09.133Z,41.68
2023-04-14T07:48:40.710Z,41.88
2023-04-14T07:51:11.940Z,41.93
2023-04-14T07:53:45.385Z,41.85
2023-04-14T07:56:15.880Z,41.83
2023-04-14T07:58:45.708Z,41.59
2023-04-14T08:01:16.096Z,41.39
2023-04-14T08:03:46.430Z,41.28
2023-04-14T08:06:17.171Z,41.35
2023-04-14T08:08:48.954Z,41.22
2023-04-14T08:11:19.057Z,41.23
2023-04-14T08:13:50.305Z,41.11
2023-04-14T08:16:20.511Z,41.17
2023-04-14T08:18:50.232Z,41.04
2023-04-14T08:21:20.295Z,41.06
2023-04-14T08:23:51.424Z,40.85
2023-04-14T08:26:21.596Z,41.11
2023-04-14T08:28:51.548Z,40.76
2023-04-14T08:31:22.064Z,40.91
2023-04-14T08:33:53.459Z,40.83
2023-04-14T08:36:23.264Z,40.76
2023-04-14T08:38:55.434Z,40.65
2023-04-14T08:41:26.012Z,40.78
2023-04-14T08:43:56.214Z,40.62
2023-04-14T08:46:28.971Z,40.33
2023-04-14T08:49:07.069Z,40.38
2023-04-14T08:51:41.225Z,40.62
2023-04-14T08:54:15.905Z,40.61
2023-04-14T08:56:45.984Z,40.52
2023-04-14T08:59:16.331Z,40.57
2023-04-14T09:01:47.181Z,40.42
2023-04-14T09:04:17.588Z,40.46
2023-04-14T09:06:47.734Z,40.12
2023-04-14T09:09:20.251Z,39.85
2023-04-14T09:11:50.960Z,40.39
2023-04-14T09:14:23.067Z,39.98
2023-04-14T09:16:54.246Z,39.68
2023-04-14T09:19:26.335Z,40.04
2023-04-14T09:21:57.667Z,39.87
2023-04-14T09:24:34.490Z,39.86
2023-04-14T09:27:06.528Z,39.78
2023-04-14T09:29:37.024Z,39.75
2023-04-14T09:32:08.179Z,39.75
2023-04-14T09:34:38.111Z,39.73
2023-04-14T09:37:11.343Z,39.49
2023-04-14T09:39:52.163Z,39.81
2023-04-14T09:42:22.341Z,39.57
2023-04-14T09:45:01.604Z,39.61
2023-04-14T09:47:31.300Z,39.21
2023-04-14T09:50:04.177Z,39.61
2023-04-14T09:52:42.777Z,39.44
2023-04-14T09:55:17.212Z,39.20
2023-04-14T09:57:49.911Z,39.07
2023-04-14T10:00:24.989Z,39.10
2023-04-14T10:02:59.314Z,38.89
2023-04-14T10:05:34.569Z,39.02
2023-04-14T10:08:06.141Z,38.83
2023-04-14T10:10:37.740Z,38.82
2023-04-14T10:13:08.119Z,38.80
2023-04-14T10:15:38.350Z,38.79
2023-04-14T10:18:08.769Z,38.79
2023-04-14T10:20:40.083Z,38.87
2023-04-14T10:23:11.569Z,38.96
2023-04-14T10:25:43.293Z,38.59
2023-04-14T10:28:14.440Z,38.84
2023-04-14T10:30:45.468Z,38.97
2023-04-14T10:33:18.076Z,38.60
2023-04-14T10:35:53.911Z,38.78
2023-04-14T10:38:24.123Z,38.52
2023-04-14T10:40:57.346Z,38.52
2023-04-14T10:43:31.167Z,38.47
2023-04-14T10:46:02.138Z,38.11
2023-04-14T10:48:37.476Z,38.25
2023-04-14T10:51:10.489Z,38.40
2023-04-14T10:53:47.147Z,38.09
2023-04-14T10:56:22.007Z,38.14
2023-04-14T10:58:59.077Z,38.38
2023-04-14T11:01:33.191Z,38.40
2023-04-14T11:04:21.186Z,38.19
2023-04-14T11:06:57.430Z,37.99
2023-04-14T11:09:39.500Z,38.08
2023-04-14T11:12:28.160Z,38.11
2023-04-14T11:14:59.233Z,37.80
2023-04-14T11:17:30.775Z,37.61
2023-04-14T11:20:00.786Z,37.98
2023-04-14T11:22:41.944Z,37.71
2023-04-14T11:25:15.493Z,37.87
2023-04-14T11:27:49.758Z,37.79
2023-04-14T11:30:21.915Z,37.75
2023-04-14T11:32:54.543Z,37.53
2023-04-14T11:35:28.330Z,37.54
2023-04-14T11:38:00.246Z,37.68
2023-04-14T11:40:30.978Z,37.56
2023-04-14T11:43:03.540Z,37.68
2023-04-14T11:45:33.610Z,37.60
2023-04-14T11:48:06.322Z,37.41
2023-04-14T11:50:39.312Z,37.63
2023-04-14T11:53:11.844Z,37.49
2023-04-14T11:55:46.773Z,37.38
2023-04-14T11:58:24.859Z,37.27
2023-04-14T12:00:56.397Z,37.38
2023-04-14T12:03:30.585Z,37.23
2023-04-14T12:06:02.134Z,37.09
2023-04-14T12:08:33.080Z,37.17
2023-04-14T12:11:15.310Z,37.35
2023-04-14T12:13:48.739Z,37.44
2023-04-14T12:16:19.868Z,37.36
2023-04-14T12:18:50.067Z,37.32
2023-04-14T12:21:21.825Z,37.11
2023-04-14T12:23:52.338Z,37.15
2023-04-14T12:26:23.319Z,37.03
2023-04-14T12:29:00.762Z,37.36
2023-04-14T12:31:31.988Z,37.09
2023-04-14T12:34:06.870Z,37.32
2023-04-14T12:36:50.195Z,37.12
2023-04-14T12:39:22.546Z,36.93
2023-04-14T12:41:52.865Z,37.05
2023-04-14T12:44:24.959Z,36.98
2023-04-14T12:46:56.622Z,36.84
2023-04-14T12:49:40.925Z,36.92
2023-04-14T12:52:11.083Z,36.88
2023-04-14T12:54:52.348Z,36.72
2023-04-14T12:57:24.025Z,36.96
2023-04-14T12:59:55.604Z,36.50
2023-04-14T13:02:25.607Z,36.68
2023-04-14T13:04:55.268Z,36.71
2023-04-14T13:07:25.666Z,36.58
2023-04-14T13:09:56.131Z,36.69
2023-04-14T13:12:26.261Z,36.69
2023-04-14T13:14:57.792Z,36.75
2023-04-14T13:17:28.170Z,36.78
2023-04-14T13:19:58.838Z,36.71
2023-04-14T13:22:29.269Z,36.61
2023-04-14T13:25:00.928Z,36.65
2023-04-14T13:27:30.369Z,36.58
2023-04-14T13:30:01.862Z,36.42
2023-04-14T13:32:31.929Z,36.59
2023-04-14T13:35:02.171Z,36.51
2023-04-14T13:37:31.673Z,36.40
2023-04-14T13:40:01.929Z,36.55
2023-04-14T13:42:32.105Z,36.41
2023-04-14T13:45:03.762Z,36.38
2023-04-14T13:47:33.334Z,36.36
2023-04-14T13:50:03.884Z,36.48
2023-04-14T13:52:34.117Z,36.27
2023-04-14T13:55:04.056Z,36.57
2023-04-14T13:57:34.105Z,36.35
2023-04-14T14:00:11.384Z,36.46
2023-04-14T14:02:41.724Z,36.19
2023-04-14T14:05:13.237Z,36.42
2023-04-14T14:07:42.675Z,36.53
2023-04-14T14:10:13.843Z,36.53
2023-04-14T14:12:43.901Z,36.50
2023-04-14T14:15:17.125Z,36.50
2023-04-14T14:17:47.276Z,36.42
2023-04-14T14:20:17.185Z,36.49
2023-04-14T14:22:47.516Z,36.42
2023-04-14T14:25:21.070Z,36.24
2023-04-14T14:27:52.158Z,36.32
2023-04-14T14:30:24.256Z,36.41
2023-04-14T14:32:54.338Z,36.79
2023-04-14T14:35:24.413Z,36.57
2023-04-14T14:37:54.736Z,36.46
2023-04-14T14:40:24.769Z,36.54
2023-04-14T14:42:55.120Z,36.48
2023-04-14T14:45:30.784Z,36.51
2023-04-14T14:48:02.122Z,36.69
2023-04-14T14:50:32.216Z,36.50
2023-04-14T14:53:03.467Z,36.56
2023-04-14T14:55:34.551Z,36.41
2023-04-14T14:58:08.648Z,36.69
2023-04-14T15:00:40.430Z,36.60
2023-04-14T15:03:10.324Z,36.47
2023-04-14T15:05:40.473Z,36.52
2023-04-14T15:08:10.798Z,36.42
2023-04-14T15:10:40.810Z,36.37
2023-04-14T15:13:10.826Z,36.49
2023-04-14T15:15:43.019Z,36.63
2023-04-14T15:18:13.502Z,36.57
2023-04-14T15:20:43.931Z,36.33
2023-04-14T15:23:14.233Z,36.38
2023-04-14T15:25:44.362Z,36.31
2023-04-14T15:28:15.221Z,36.33
2023-04-14T15:30:46.722Z,36.35
2023-04-14T15:33:16.886Z,36.31
2023-04-14T15:35:47.028Z,36.24
2023-04-14T15:38:16.720Z,36.30
2023-04-14T15:40:46.830Z,36.22
2023-04-14T15:43:17.447Z,36.31
2023-04-14T15:45:49.578Z,36.14
2023-04-14T15:48:19.703Z,36.15
2023-04-14T15:50:49.810Z,36.05
2023-04-14T15:53:19.996Z,36.18
2023-04-14T15:55:52.618Z,36.21
2023-04-14T15:58:23.110Z,36.30
2023-04-14T16:00:54.174Z,36.28
2023-04-14T16:03:24.540Z,36.36
2023-04-14T16:06:03.527Z,36.30
2023-04-14T16:08:33.675Z,36.28
2023-04-14T16:11:03.926Z,36.44
2023-04-14T16:13:34.159Z,36.60
2023-04-14T16:16:06.303Z,36.56
2023-04-14T16:18:37.327Z,36.36
2023-04-14T16:21:07.405Z,36.40
2023-04-14T16:23:37.752Z,36.43
2023-04-14T16:26:07.923Z,36.53
2023-04-14T16:28:37.731Z,36.42
2023-04-14T16:31:10.069Z,36.60
2023-04-14T16:33:40.052Z,36.31
2023-04-14T16:36:09.896Z,36.53
2023-04-14T16:38:39.783Z,36.60
2023-04-14T16:41:09.897Z,36.68
2023-04-14T16:43:40.053Z,36.57
2023-04-14T16:46:12.305Z,36.50
2023-04-14T16:48:42.550Z,36.81
2023-04-14T16:51:13.033Z,36.67
2023-04-14T16:53:44.538Z,36.63
2023-04-14T16:56:14.553Z,36.61
2023-04-14T16:58:44.688Z,36.58
2023-04-14T17:01:16.384Z,36.75
2023-04-14T17:03:46.162Z,37.02
2023-04-14T17:06:16.101Z,36.59
2023-04-14T17:08:46.548Z,36.65
2023-04-14T17:11:17.265Z,36.71
2023-04-14T17:13:47.292Z,36.68
2023-04-14T17:16:19.503Z,36.80
2023-04-14T17:18:51.659Z,36.65
2023-04-14T17:21:21.764Z,36.67
2023-04-14T17:23:51.933Z,36.62
2023-04-14T17:26:21.943Z,36.51
2023-04-14T17:28:51.989Z,36.64
2023-04-14T17:31:24.350Z,36.55
2023-04-14T17:33:54.548Z,36.81
2023-04-14T17:36:24.797Z,36.79
2023-04-14T17:38:54.352Z,36.71
2023-04-14T17:41:25.306Z,36.93
2023-04-14T17:43:55.008Z,36.87
2023-04-14T17:46:34.293Z,36.87
2023-04-14T17:49:04.746Z,37.08
2023-04-14T17:51:35.723Z,36.73
2023-04-14T17:54:08.094Z,37.04
2023-04-14T17:56:37.873Z,36.75
2023-04-14T17:59:07.535Z,37.04
2023-04-14T18:01:39.184Z,37.16
2023-04-14T18:04:09.616Z,37.01
2023-04-14T18:06:39.850Z,37.16
2023-04-14T18:09:10.891Z,36.88
2023-04-14T18:11:40.975Z,37.16
2023-04-14T18:14:11.232Z,37.00
2023-04-14T18:16:43.025Z,36.86
2023-04-14T18:19:13.168Z,37.23
2023-04-14T18:21:44.843Z,37.14
2023-04-14T18:26:48.032Z,37.43
2023-04-14T18:29:17.992Z,37.10
2023-04-14T18:31:49.555Z,37.25
2023-04-14T18:34:19.907Z,37.23
2023-04-14T18:36:49.937Z,37.41
2023-04-14T18:39:19.963Z,37.33
2023-04-14T18:41:50.141Z,37.28
2023-04-14T18:44:20.201Z,37.59
2023-04-14T18:46:52.290Z,37.32
2023-04-14T18:49:22.563Z,37.38
2023-04-14T18:51:52.786Z,37.58
2023-04-14T18:54:23.768Z,37.18
2023-04-14T18:56:53.910Z,37.50
2023-04-14T18:59:24.662Z,37.66
2023-04-14T19:01:56.297Z,37.56
2023-04-14T19:04:26.742Z,37.64
2023-04-14T19:06:56.844Z,37.69
2023-04-14T19:09:27.836Z,37.63
2023-04-14T19:11:58.146Z,37.76
2023-04-14T19:14:28.238Z,37.75
2023-04-14T19:16:59.677Z,37.94
2023-04-14T19:19:30.102Z,37.64
2023-04-14T19:22:00.256Z,37.79
2023-04-14T19:24:30.541Z,37.74
2023-04-14T19:27:00.478Z,37.92
2023-04-14T19:29:29.984Z,38.02
2023-04-14T19:32:01.781Z,37.79
2023-04-14T19:34:32.025Z,37.96
2023-04-14T19:37:03.654Z,37.97
2023-04-14T19:39:34.608Z,38.05
2023-04-14T19:42:04.741Z,37.84
2023-04-14T19:44:35.672Z,38.10
2023-04-14T19:47:07.983Z,37.86
2023-04-14T19:49:37.931Z,38.08
2023-04-14T19:52:08.396Z,37.78
2023-04-14T19:54:38.676Z,38.09
2023-04-14T19:57:08.860Z,37.90
2023-04-14T19:59:40.430Z,38.10
2023-04-14T20:02:13.605Z,38.01
2023-04-14T20:04:43.983Z,38.08
2023-04-14T20:07:13.661Z,38.07
2023-04-14T20:09:46.809Z,38.01
2023-04-14T20:12:17.026Z,38.17
2023-04-14T20:14:47.514Z,38.15
2023-04-14T20:17:20.672Z,37.98
2023-04-14T20:19:50.957Z,38.12
2023-04-14T20:22:21.089Z,38.21
2023-04-14T20:24:51.242Z,38.31
2023-04-14T20:27:20.937Z,38.18
2023-04-14T20:29:51.723Z,38.13
2023-04-14T20:32:24.162Z,38.12
2023-04-14T20:34:54.434Z,38.26
2023-04-14T20:37:24.625Z,38.21
2023-04-14T20:39:55.430Z,38.29
2023-04-14T20:42:25.664Z,38.49
2023-04-14T20:44:55.811Z,38.33
2023-04-14T20:47:27.946Z,38.20
2023-04-14T20:49:57.966Z,38.35
2023-04-14T20:52:28.495Z,38.30
2023-04-14T20:54:58.558Z,38.38
2023-04-14T20:57:28.635Z,38.22
2023-04-14T20:59:58.569Z,38.64
2023-04-14T21:02:30.357Z,38.43
2023-04-14T21:05:00.121Z,38.38
2023-04-14T21:07:30.424Z,38.24
2023-04-14T21:10:00.634Z,38.54
2023-04-14T21:12:35.287Z,38.53
2023-04-14T21:15:45.602Z,38.29
2023-04-14T21:17:58.325Z,38.67
2023-04-14T21:20:29.447Z,38.48
2023-04-14T21:22:59.498Z,38.42
2023-04-14T21:25:29.688Z,38.42
2023-04-14T21:27:59.822Z,38.39
2023-04-14T21:30:29.312Z,38.49
2023-04-14T21:33:00.592Z,38.54
2023-04-14T21:35:30.067Z,38.55
2023-04-14T21:38:00.016Z,38.71
2023-04-14T21:40:30.607Z,38.56
2023-04-14T21:43:00.486Z,38.75
2023-04-14T21:45:30.670Z,38.92
2023-04-14T21:48:03.216Z,38.62
2023-04-14T21:50:33.413Z,38.88
2023-04-14T21:53:04.563Z,38.65
2023-04-14T21:55:34.808Z,38.83
2023-04-14T21:58:05.869Z,38.94
2023-04-14T22:00:37.544Z,39.12
2023-04-14T22:03:11.276Z,38.69
2023-04-14T22:05:42.041Z,38.68
2023-04-14T22:08:12.556Z,38.61
2023-04-14T22:10:43.618Z,39.04
2023-04-14T22:13:13.497Z,39.04
2023-04-14T22:15:45.355Z,39.12
2023-04-14T22:18:17.514Z,39.09
2023-04-14T22:20:47.926Z,38.98
2023-04-14T22:23:18.695Z,39.10
2023-04-14T22:25:49.412Z,39.23
2023-04-14T22:28:19.636Z,39.02
2023-04-14T22:30:49.503Z,38.99
2023-04-14T22:33:20.893Z,39.08
2023-04-14T22:35:51.584Z,39.17
2023-04-14T22:38:22.057Z,39.13
2023-04-14T22:40:52.960Z,39.31
2023-04-14T22:43:23.170Z,39.14
2023-04-14T22:45:52.870Z,39.26
2023-04-14T22:48:24.561Z,39.34
2023-04-14T22:50:54.930Z,39.40
2023-04-14T22:53:25.106Z,39.09
2023-04-14T22:55:55.060Z,39.41
2023-04-14T22:58:25.568Z,39.39
2023-04-14T23:00:55.294Z,39.37
2023-04-14T23:03:27.214Z,39.46
2023-04-14T23:05:56.928Z,39.64
2023-04-14T23:08:27.544Z,39.40
2023-04-14T23:10:57.986Z,39.52
2023-04-14T23:13:28.550Z,39.47
2023-04-14T23:15:58.869Z,39.52
2023-04-14T23:18:30.197Z,39.44
2023-04-14T23:21:00.304Z,39.31
2023-04-14T23:23:29.761Z,39.63
2023-04-14T23:25:59.932Z,39.46
2023-04-14T23:28:29.354Z,39.30
2023-04-14T23:30:59.553Z,39.43
2023-04-14T23:33:31.204Z,39.55
2023-04-14T23:36:01.093Z,39.39
2023-04-14T23:38:31.101Z,39.26
2023-04-14T23:41:00.722Z,39.82
2023-04-14T23:43:30.564Z,39.83
2023-04-14T23:46:00.752Z,39.49
2023-04-14T23:48:31.775Z,39.55
2023-04-14T23:51:13.811Z,39.87
2023-04-14T23:53:45.236Z,39.72
2023-04-14T23:56:15.079Z,39.63
2023-04-14T23:58:44.974Z,39.78
